Terminal Aerodrome Forecast
Issued by NWS

Home | Current Version | Previous Version | Text Only | Print | Product List | Glossary On
Versions: 1 2 3 4 5 6 7 8 9 10 11 12
000
FTUS45 KRIW 152300
TAFWRL
TAF
KWRL 152323Z 1600/1624 VRB05KT P6SM FEW120
     FM160200 VRB06KT P6SM SKC
     FM162000 01006KT P6SM FEW120=

USA.gov is the U.S. government's official web portal to all federal, state and local government web resources and services.